Time;durP1;ratioP1;P1;durP2;ratioP2;P2;SDS_P1;SDS_P2;PMS_P1;PMS_P2;Temp;Humidity;BMP_temperature;BMP_pressure;BME280_temperature;BME280_humidity;BME280_pressure;Samples;Min_cycle;Max_cycle;Signal;HPM_P1;HPM_P2
2022/03/17 00:03:20;;;;;;;1999.90;999.90;;;;;;;7.14;78.88;102393.53;15555056;28;19921;-63
2022/03/17 00:10:52;;;;;;;1999.90;999.90;;;;;;;7.60;76.37;102409.56;15491291;28;20076;-62
2022/03/17 00:18:26;;;;;;;1999.90;999.90;;;;;;;7.72;75.58;102424.09;15547183;28;20605;-61
2022/03/17 00:25:58;;;;;;;1999.90;999.90;;;;;;;7.76;75.01;102426.03;15503489;28;20096;-63
2022/03/17 00:33:32;;;;;;;1999.90;999.90;;;;;;;7.04;77.72;102409.31;15512231;28;20038;-61
2022/03/17 00:41:04;;;;;;;1999.90;999.90;;;;;;;6.66;79.42;102405.69;15502036;28;20448;-61
2022/03/17 00:48:37;;;;;;;1999.90;999.90;;;;;;;6.49;81.50;102396.72;15487001;28;20472;-60
2022/03/17 00:56:09;;;;;;;1999.90;999.90;;;;;;;6.43;81.64;102389.44;15519868;28;20042;-62
2022/03/17 01:03:44;;;;;;;1999.90;999.90;;;;;;;6.33;82.14;102373.56;15514431;28;20041;-62
2022/03/17 01:11:16;;;;;;;1999.90;999.90;;;;;;;6.32;82.68;102392.13;15517569;28;20069;-60
2022/03/17 01:18:49;;;;;;;1999.90;999.90;;;;;;;6.47;82.23;102377.56;15485459;28;20447;-61
2022/03/17 01:26:21;;;;;;;1999.90;999.90;;;;;;;6.24;81.93;102389.81;15508632;28;20531;-61
2022/03/17 01:33:54;;;;;;;1999.90;999.90;;;;;;;6.29;81.85;102395.44;15545248;22;20312;-62
2022/03/17 01:41:29;;;;;;;1999.90;999.90;;;;;;;6.34;81.82;102375.22;15673412;28;20086;-61
2022/03/17 01:49:02;;;;;;;1999.90;999.90;;;;;;;6.50;81.09;102374.25;15672972;28;20072;-61
2022/03/17 01:56:34;;;;;;;1999.90;999.90;;;;;;;6.27;82.15;102369.91;15670684;28;20507;-61
2022/03/17 02:04:08;;;;;;;1999.90;999.90;;;;;;;6.23;83.03;102365.97;15671990;28;20040;-60
2022/03/17 02:19:31;;;;;;;1999.90;999.90;;;;;;;6.01;84.06;102345.81;15669433;28;20135;-60
2022/03/17 02:27:06;;;;;;;1999.90;999.90;;;;;;;6.05;83.63;102353.38;15658547;28;20099;-59
2022/03/17 02:34:38;;;;;;;1999.90;999.90;;;;;;;6.07;83.38;102337.31;15667055;28;20044;-61
2022/03/17 02:42:11;;;;;;;1999.90;999.90;;;;;;;6.00;83.86;102341.38;15668771;28;20029;-61
2022/03/17 02:49:47;;;;;;;1999.90;999.90;;;;;;;5.93;83.54;102337.97;15673226;28;20040;-60
2022/03/17 02:57:21;;;;;;;1999.90;999.90;;;;;;;6.00;82.86;102327.53;15652971;28;20033;-60
2022/03/17 03:04:53;;;;;;;1999.90;999.90;;;;;;;6.34;81.23;102331.69;15666748;28;20049;-60
2022/03/17 03:12:27;;;;;;;1999.90;999.90;;;;;;;6.42;80.46;102329.53;15666839;28;20041;-61
2022/03/17 03:19:59;;;;;;;1999.90;999.90;;;;;;;6.09;81.68;102334.25;15666287;28;20041;-61
2022/03/17 03:27:32;;;;;;;1999.90;999.90;;;;;;;6.05;82.26;102324.81;15668127;28;20052;-59
2022/03/17 03:37:22;;;;;;;1999.90;999.90;;;;;;;6.04;81.78;102325.88;15668119;28;20040;-60
2022/03/17 03:43:00;;;;;;;1999.90;999.90;;;;;;;6.00;82.02;102325.59;15666195;28;20039;-61
2022/03/17 03:50:32;;;;;;;1999.90;999.90;;;;;;;6.15;81.03;102326.81;15651260;28;20072;-61
2022/03/17 03:58:06;;;;;;;1999.90;999.90;;;;;;;6.40;79.58;102328.97;15667797;28;20124;-59
2022/03/17 04:05:38;;;;;;;1999.90;999.90;;;;;;;6.40;79.01;102335.34;15673002;28;20711;-61
2022/03/17 04:13:13;;;;;;;1999.90;999.90;;;;;;;6.00;80.65;102314.50;15667536;28;20033;-62
2022/03/17 04:20:45;;;;;;;;;;;;;;;6.09;79.88;102306.53;15677324;28;20048;-60
2022/03/17 04:28:19;;;;;;;1999.90;999.90;;;;;;;6.16;79.10;102314.66;15654589;28;19925;-61
2022/03/17 04:35:51;;;;;;;1999.90;999.90;;;;;;;6.09;79.07;102323.19;15676712;28;20060;-61
2022/03/17 04:43:25;;;;;;;1999.90;999.90;;;;;;;6.28;78.79;102331.94;15679025;28;20404;-60
2022/03/17 04:50:57;;;;;;;1999.90;999.90;;;;;;;6.20;77.53;102324.94;15678868;28;20067;-61
2022/03/17 04:58:33;;;;;;;1999.90;999.90;;;;;;;6.12;78.45;102339.28;15678258;28;20428;-60
2022/03/17 05:06:05;;;;;;;1999.90;999.90;;;;;;;6.29;77.39;102344.69;15677002;28;20497;-60
2022/03/17 05:13:39;;;;;;;1999.90;999.90;;;;;;;6.31;77.71;102345.25;15658874;28;20110;-61
2022/03/17 05:21:11;;;;;;;1999.90;999.90;;;;;;;5.93;78.99;102330.50;15675892;28;20481;-61
2022/03/17 05:28:46;;;;;;;1999.90;999.90;;;;;;;5.91;78.65;102331.88;15674844;28;20056;-59
2022/03/17 05:36:19;;;;;;;1999.90;999.90;;;;;;;6.07;77.77;102342.84;15675136;28;20083;-60
2022/03/17 05:43:52;;;;;;;1999.90;999.90;;;;;;;6.04;77.87;102356.38;15673804;28;20045;-61
2022/03/17 05:51:24;;;;;;;1999.90;999.90;;;;;;;6.17;77.55;102353.19;15673297;28;20147;-62
2022/03/17 05:58:57;;;;;;;1999.90;999.90;;;;;;;6.44;76.62;102366.97;15673385;28;20053;-61
2022/03/17 06:06:30;;;;;;;1999.90;999.90;;;;;;;6.18;76.91;102356.81;15669471;28;20071;-62
2022/03/17 06:14:03;;;;;;;1999.90;999.90;;;;;;;6.11;78.00;102356.16;15670383;28;20084;-60
2022/03/17 06:21:35;;;;;;;;;;;;;;;6.12;77.81;102349.53;15673673;28;20554;-62
2022/03/17 06:29:09;;;;;;;1999.90;999.90;;;;;;;6.35;76.79;102351.94;15671101;28;19927;-60
2022/03/17 06:36:41;;;;;;;1999.90;999.90;;;;;;;6.48;76.37;102345.97;15672147;28;20040;-62
2022/03/17 06:44:14;;;;;;;1999.90;999.90;;;;;;;6.53;75.91;102347.91;15670001;28;20053;-60
2022/03/17 06:51:46;;;;;;;1999.90;999.90;;;;;;;6.81;75.04;102360.59;15671747;28;20049;-61
2022/03/17 06:59:20;;;;;;;1999.90;999.90;;;;;;;6.99;74.83;102359.31;15671447;28;20052;-61
2022/03/17 07:06:52;;;;;;;;;;;;;;;7.16;74.19;102363.56;15669590;28;20086;-61
2022/03/17 07:14:26;;;;;;;1999.90;999.90;;;;;;;7.16;74.10;102365.50;15669919;28;20384;-61
2022/03/17 07:21:58;;;;;;;1999.90;999.90;;;;;;;7.26;74.02;102368.34;15651321;28;20547;-61
2022/03/17 07:29:33;;;;;;;1999.90;999.90;;;;;;;7.49;73.29;102376.19;15667789;28;20209;-62
2022/03/17 07:37:05;;;;;;;1999.90;999.90;;;;;;;7.83;72.50;102389.66;15667028;28;20107;-61
2022/03/17 07:44:40;;;;;;;;;;;;;;;8.08;71.86;102395.25;15669142;28;20367;-61
2022/03/17 07:52:31;;;;;;;1999.90;999.90;;;;;;;8.18;71.27;102388.06;15672803;28;19925;-62
2022/03/17 08:00:07;;;;;;;1999.90;999.90;;;;;;;7.93;72.44;102406.38;15680558;28;20057;-61
2022/03/17 08:07:45;;;;;;;1999.90;999.90;;;;;;;8.47;71.62;102403.13;15678420;28;20671;-60
2022/03/17 08:15:18;;;;;;;1999.90;999.90;;;;;;;8.63;70.05;102384.47;15678187;28;20044;-60
2022/03/17 08:22:51;;;;;;;1999.90;999.90;;;;;;;8.42;71.34;102383.63;15679328;28;20521;-61
2022/03/17 08:30:24;;;;;;;1999.90;999.90;;;;;;;8.33;71.25;102382.47;15677385;28;20068;-60
2022/03/17 08:37:57;;;;;;;1999.90;999.90;;;;;;;8.79;69.72;102391.69;15678342;28;20069;-62
2022/03/17 08:53:23;;;;;;;1999.90;999.90;;;;;;;8.85;69.30;102390.56;15676594;28;20128;-61
2022/03/17 09:01:00;;;;;;;1999.90;999.90;;;;;;;8.80;69.40;102389.75;15675754;28;20037;-61
2022/03/17 09:08:32;;;;;;;1999.90;999.90;;;;;;;9.02;70.11;102389.41;15674647;28;20128;-61
2022/03/17 09:16:06;;;;;;;1999.90;999.90;;;;;;;9.19;68.83;102387.16;15673765;28;20041;-62
2022/03/17 09:23:38;;;;;;;1999.90;999.90;;;;;;;9.41;68.10;102386.78;15676099;28;20382;-61
2022/03/17 09:31:12;;;;;;;1999.90;999.90;;;;;;;9.59;66.57;102394.53;15674579;28;20048;-60
2022/03/17 09:39:39;;;;;;;;;;;;;;;9.93;66.91;102397.41;15673784;28;20049;-62
2022/03/17 09:46:42;;;;;;;1999.90;999.90;;;;;;;10.11;66.10;102404.28;15656390;28;19921;-62
2022/03/17 09:54:14;;;;;;;1999.90;999.90;;;;;;;10.13;65.17;102410.38;15671906;28;20037;-61
2022/03/17 10:01:47;;;;;;;1999.90;999.90;;;;;;;10.57;63.93;102415.94;15672058;28;20040;-61
2022/03/17 10:09:19;;;;;;;1999.90;999.90;;;;;;;10.79;61.64;102421.06;15672693;28;20115;-62
2022/03/17 10:16:53;;;;;;;1999.90;999.90;;;;;;;11.24;60.40;102427.31;15610005;28;20128;-63
2022/03/17 10:24:25;;;;;;;1999.90;999.90;;;;;;;11.31;58.77;102432.53;15640624;28;20041;-60
2022/03/17 10:32:05;;;;;;;1999.90;999.90;;;;;;;11.30;59.40;102445.69;15670428;28;20057;-61
2022/03/17 10:39:42;;;;;;;1999.90;999.90;;;;;;;11.77;57.96;102441.19;15669348;28;20126;-60
2022/03/17 10:47:23;;;;;;;1999.90;999.90;;;;;;;11.34;58.25;102438.38;15670662;28;20077;-60
2022/03/17 10:54:57;;;;;;;1999.90;999.90;;;;;;;11.57;58.31;102437.56;15672069;28;20044;-60
2022/03/17 11:02:32;;;;;;;1999.90;999.90;;;;;;;11.79;57.42;102427.78;15669046;28;20073;-62
2022/03/17 11:10:07;;;;;;;1999.90;999.90;;;;;;;12.06;57.25;102433.56;15668971;28;20140;-62
2022/03/17 11:17:46;;;;;;;1999.90;999.90;;;;;;;12.06;56.80;102427.13;15667051;28;20037;-61
2022/03/17 11:25:20;;;;;;;1999.90;999.90;;;;;;;12.27;56.38;102413.69;15667525;28;20044;-61
2022/03/17 11:32:55;;;;;;;1999.90;999.90;;;;;;;12.65;54.07;102422.88;15650485;28;20048;-61
2022/03/17 11:40:27;;;;;;;1999.90;999.90;;;;;;;12.75;53.56;102422.69;15666168;28;20045;-60
2022/03/17 11:48:03;;;;;;;1999.90;999.90;;;;;;;13.13;53.30;102420.63;15665789;28;20490;-62
2022/03/17 11:55:38;;;;;;;1999.90;999.90;;;;;;;12.86;52.34;102420.53;15665072;28;20411;-60
2022/03/17 12:03:12;;;;;;;1999.90;999.90;;;;;;;13.17;50.29;102435.66;15667193;28;20069;-63
2022/03/17 12:11:06;;;;;;;1999.90;999.90;;;;;;;13.28;50.29;102425.94;15666606;28;20459;-62
2022/03/17 12:19:02;;;;;;;1999.90;999.90;;;;;;;13.11;49.53;102422.88;15666285;28;20060;-61
2022/03/17 12:26:34;;;;;;;1999.90;999.90;;;;;;;13.24;49.89;102436.13;15666967;28;20506;-61
2022/03/17 12:34:08;;;;;;;1999.90;999.90;;;;;;;13.31;48.94;102440.47;15647460;28;20037;-60
2022/03/17 12:41:41;;;;;;;;;;;;;;;13.40;48.57;102447.03;15675259;28;20048;-63
2022/03/17 12:49:15;;;;;;;1999.90;999.90;;;;;;;13.64;48.57;102446.81;15709237;28;19921;-61
2022/03/17 12:56:49;;;;;;;;;;;;;;;13.20;49.09;102434.22;15676525;28;20481;-62
2022/03/17 13:04:22;;;;;;;1999.90;999.90;;;;;;;13.48;48.62;102437.91;15674582;28;19931;-58
2022/03/17 13:19:56;;;;;;;1999.90;999.90;;;;;;;14.20;47.60;102452.06;15674637;28;19943;-61
2022/03/17 13:27:28;;;;;;;1999.90;999.90;;;;;;;13.74;48.03;102455.84;15673865;28;20045;-60
2022/03/17 13:35:04;;;;;;;1999.90;999.90;;;;;;;13.61;48.46;102470.72;15634445;22;20057;-59
2022/03/17 13:42:36;;;;;;;1999.90;999.90;;;;;;;13.69;48.30;102463.56;15542668;28;20522;-57
2022/03/17 13:50:25;;;;;;;1999.90;999.90;;;;;;;13.97;48.12;102461.56;15541683;28;20428;-57
2022/03/17 13:58:14;;;;;;;1999.90;999.90;;;;;;;14.35;47.74;102464.91;15539787;28;20045;-59
2022/03/17 14:06:11;;;;;;;1999.90;999.90;;;;;;;14.12;47.80;102476.09;15524678;28;20073;-60
2022/03/17 14:13:46;;;;;;;1999.90;999.90;;;;;;;14.68;47.00;102473.97;15548623;28;20076;-60
2022/03/17 14:21:22;;;;;;;1999.90;999.90;;;;;;;14.60;47.14;102484.00;15538777;28;20053;-56
2022/03/17 14:28:58;;;;;;;1999.90;999.90;;;;;;;14.51;47.41;102493.50;15565777;28;20148;-58
2022/03/17 14:36:33;;;;;;;1999.90;999.90;;;;;;;14.28;47.48;102506.66;15601512;28;20050;-57
2022/03/17 14:44:06;;;;;;;1999.90;999.90;;;;;;;14.04;48.18;102510.50;15600296;28;20052;-59
2022/03/17 14:51:43;;;;;;;1999.90;999.90;;;;;;;14.37;48.04;102508.38;15599618;28;20038;-60
2022/03/17 14:59:15;;;;;;;1999.90;999.90;;;;;;;14.49;47.96;102521.94;15600311;28;20046;-61
2022/03/17 15:06:49;;;;;;;1999.90;999.90;;;;;;;14.80;47.75;102529.59;15600186;28;20509;-59
2022/03/17 15:14:21;;;;;;;1999.90;999.90;;;;;;;14.84;47.28;102539.06;15598919;28;20477;-56
2022/03/17 15:21:56;;;;;;;1999.90;999.90;;;;;;;14.91;47.64;102543.13;15601120;28;20053;-54
2022/03/17 15:37:20;;;;;;;1999.90;999.90;;;;;;;14.86;47.87;102536.78;15601135;28;20153;-60
2022/03/17 15:44:55;;;;;;;1999.90;999.90;;;;;;;14.70;48.35;102531.53;15601905;28;20061;-59
2022/03/17 15:52:28;;;;;;;1999.90;999.90;;;;;;;14.60;48.58;102542.19;15599623;28;20049;-56
2022/03/17 16:00:01;;;;;;;;;;;;;;;14.58;49.53;102556.53;15599079;28;20316;-60
2022/03/17 16:07:35;;;;;;;1999.90;999.90;;;;;;;14.48;50.33;102567.97;15586170;28;20429;-59
2022/03/17 16:15:08;;;;;;;1999.90;999.90;;;;;;;14.32;52.28;102583.50;15545401;28;20056;-56
2022/03/17 16:22:44;;;;;;;1999.90;999.90;;;;;;;14.26;55.26;102579.13;15509448;28;20050;-59
2022/03/17 16:30:17;;;;;;;1999.90;999.90;;;;;;;13.98;58.29;102597.97;15565595;28;20052;-60
2022/03/17 16:37:50;;;;;;;1999.90;999.90;;;;;;;13.68;60.01;102599.38;15545026;28;20034;-57
2022/03/17 16:45:25;;;;;;;;;;;;;;;13.56;61.76;102611.09;15547191;28;20033;-58
2022/03/17 16:52:59;;;;;;;1999.90;999.90;;;;;;;13.35;62.50;102626.59;15577567;28;19925;-58
2022/03/17 17:00:31;;;;;;;1999.90;999.90;;;;;;;13.13;63.01;102628.03;15535630;28;20145;-60
2022/03/17 17:08:06;;;;;;;1999.90;999.90;;;;;;;12.98;62.71;102629.09;15539253;28;20050;-60
2022/03/17 17:15:38;;;;;;;1999.90;999.90;;;;;;;12.93;62.80;102636.75;15538354;28;20053;-62
2022/03/17 17:31:01;;;;;;;1999.90;999.90;;;;;;;12.88;63.72;102662.84;15554088;28;20046;-60
2022/03/17 17:38:34;;;;;;;1999.90;999.90;;;;;;;12.65;64.35;102681.38;15527917;28;20048;-61
2022/03/17 17:46:07;;;;;;;;;;;;;;;12.78;63.81;102695.78;15548559;28;20157;-57
2022/03/17 17:53:40;;;;;;;1999.90;999.90;;;;;;;12.79;62.86;102697.44;15543672;28;20403;-63
2022/03/17 18:01:13;;;;;;;;;;;;;;;12.64;64.19;102709.69;15535578;28;20088;-61
2022/03/17 18:08:46;;;;;;;1999.90;999.90;;;;;;;12.55;63.78;102728.28;15533821;28;20068;-59
2022/03/17 18:16:18;;;;;;;1999.90;999.90;;;;;;;12.52;64.75;102729.72;15541048;28;20126;-63
2022/03/17 18:23:52;;;;;;;1999.90;999.90;;;;;;;12.38;64.78;102751.16;15529868;28;20574;-62
2022/03/17 18:31:24;;;;;;;;;;;;;;;12.32;63.49;102781.16;15538064;28;20054;-63
2022/03/17 18:38:57;;;;;;;1999.90;999.90;;;;;;;12.21;62.39;102795.56;15547497;28;19921;-59
2022/03/17 18:46:30;;;;;;;1999.90;999.90;;;;;;;12.02;63.26;102813.06;15546222;28;20126;-56
2022/03/17 18:54:03;;;;;;;1999.90;999.90;;;;;;;12.07;63.43;102824.22;15543455;28;20084;-58
2022/03/17 19:01:35;;;;;;;;;;;;;;;12.09;65.27;102829.53;15531874;28;20482;-61
2022/03/17 19:09:09;;;;;;;1999.90;999.90;;;;;;;11.98;66.42;102830.72;15540545;28;19925;-61
2022/03/17 19:16:41;;;;;;;;;;;;;;;11.79;68.46;102856.59;15537139;28;20034;-60
2022/03/17 19:24:15;;;;;;;1999.90;999.90;;;;;;;11.31;70.83;102860.19;15539476;28;20040;-62
2022/03/17 19:31:47;;;;;;;1999.90;999.90;;;;;;;11.36;71.08;102872.19;15520206;28;20244;-61
2022/03/17 19:39:21;;;;;;;1999.90;999.90;;;;;;;11.34;70.86;102881.97;15608316;22;20351;-64
2022/03/17 19:46:55;;;;;;;1999.90;999.90;;;;;;;11.12;71.00;102879.53;15621469;28;20040;-62
2022/03/17 19:54:29;;;;;;;;;;;;;;;11.11;71.03;102905.81;15648880;28;20122;-61
2022/03/17 20:02:01;;;;;;;1999.90;999.90;;;;;;;11.19;69.43;102920.03;15666219;28;19978;-62
2022/03/17 20:09:35;;;;;;;1999.90;999.90;;;;;;;11.15;68.82;102921.75;15656253;28;20033;-62
2022/03/17 20:17:07;;;;;;;1999.90;999.90;;;;;;;10.79;70.01;102928.50;15655919;28;20067;-60
2022/03/17 20:24:40;;;;;;;1999.90;999.90;;;;;;;11.00;68.80;102944.13;15664086;28;20051;-61
2022/03/17 20:32:13;;;;;;;1999.90;999.90;;;;;;;11.01;68.56;102956.13;15658214;28;20044;-61
2022/03/17 20:39:46;;;;;;;1999.90;999.90;;;;;;;10.94;68.96;102964.78;15676603;28;20051;-61
2022/03/17 20:47:19;;;;;;;;;;;;;;;10.72;70.17;102973.47;15674981;28;20114;-62
2022/03/17 20:54:52;;;;;;;1999.90;999.90;;;;;;;10.66;69.73;102982.97;15657712;28;20305;-64
2022/03/17 21:02:25;;;;;;;1999.90;999.90;;;;;;;10.29;70.95;102984.03;15659884;28;20449;-65
2022/03/17 21:09:58;;;;;;;1999.90;999.90;;;;;;;10.14;71.09;102992.34;15667557;28;20049;-63
2022/03/17 21:17:30;;;;;;;1999.90;999.90;;;;;;;10.51;69.61;103003.31;15637996;28;20052;-62
2022/03/17 21:25:05;;;;;;;1999.90;999.90;;;;;;;10.32;70.07;103016.16;15666381;28;20029;-62
2022/03/17 21:32:38;;;;;;;1999.90;999.90;;;;;;;10.08;70.46;103030.53;15636470;28;20080;-62
2022/03/17 21:40:13;;;;;;;1999.90;999.90;;;;;;;10.26;69.73;103029.25;15633344;28;20045;-62
2022/03/17 21:47:45;;;;;;;1999.90;999.90;;;;;;;10.33;68.96;103031.78;15642683;28;20140;-62
2022/03/17 21:55:19;;;;;;;1999.90;999.90;;;;;;;10.41;68.47;103034.84;15647220;28;20084;-61
2022/03/17 22:02:51;;;;;;;1999.90;999.90;;;;;;;10.32;68.56;103052.44;15672421;28;20041;-61
2022/03/17 22:10:24;;;;;;;1999.90;999.90;;;;;;;10.34;68.55;103055.78;15650975;28;20072;-61
2022/03/17 22:17:57;;;;;;;1999.90;999.90;;;;;;;10.38;68.16;103052.16;15638425;28;20076;-62
2022/03/17 22:25:31;;;;;;;1999.90;999.90;;;;;;;10.49;67.75;103060.56;15652780;28;20032;-63
2022/03/17 22:33:04;;;;;;;1999.90;999.90;;;;;;;10.38;67.83;103077.28;15641553;28;20410;-62
2022/03/17 22:48:28;;;;;;;1999.90;999.90;;;;;;;10.25;68.83;103088.97;15644799;28;20068;-63
2022/03/17 22:56:01;;;;;;;1999.90;999.90;;;;;;;10.31;69.10;103103.75;15641951;28;20045;-63
2022/03/17 23:03:33;;;;;;;1999.90;999.90;;;;;;;10.13;69.76;103099.50;15668561;28;20044;-63
2022/03/17 23:11:07;;;;;;;1999.90;999.90;;;;;;;10.30;69.45;103110.47;15622665;28;20046;-62
2022/03/17 23:18:41;;;;;;;1999.90;999.90;;;;;;;10.06;70.48;103116.47;15640803;28;20088;-63
2022/03/17 23:26:14;;;;;;;1999.90;999.90;;;;;;;10.25;70.27;103130.00;15624965;28;20045;-63
2022/03/17 23:33:46;;;;;;;1999.90;999.90;;;;;;;10.27;70.08;103136.13;15630239;28;20045;-63
2022/03/17 23:41:20;;;;;;;1999.90;999.90;;;;;;;10.43;69.06;103145.44;15650692;28;20037;-63
2022/03/17 23:48:52;;;;;;;1999.90;999.90;;;;;;;10.16;70.04;103151.97;15642954;28;20045;-63
2022/03/17 23:56:26;;;;;;;1999.90;999.90;;;;;;;10.17;70.45;103164.78;15625807;28;20045;-62
